»·PEaware :: AAL5187 KCLT-KSDF

AAL5187 :: KCLT-KSDF

FLIGHT INFORMATION

Flight Status: Arrived
Operator:
American Airlines
More flights by this operator :: More flights under this callsign
Pilot: Austin W. (7615)
Aircraft: AIRBUS A319
(A319)
More flights by this aircraft type
Origin: KCLT Charlotte/Douglas Intl
United States
Destination: KSDF Louisville Intl-Standiford
United States
More flights between these airports :: More routes between these airports
Route: JOJJO4 CUBIM LAFOX MAUDD5
File this flight plan on PilotEdge
Remarks:
Altitude:
(Current/Filed)
34,000ft
Speed:
(Current/Filed)
450kts
Departed: 26-Feb-19 05:24 PM
Arrived: 26-Feb-19 06:27 PM
Distance/Time
Traveled:
292nm/1:03
Distance/Time
To Go:
Arrived

Flight Plot

Page will automatically refresh every two minutes.

Flight plan parsing failed; only flown route is shown


Map Options




Map Legend


Flown Route
Filed Route
Departure Airport
Arrival Airport
Navaid (VOR, NDB)
Fix

Horizontal Profiles

Position Reports

Time Latitude Longitude Heading Altitude Ground
Speed
26-Feb-19 17:06 35.217693 -80.945923 59 762ft 0kts
26-Feb-19 17:07 35.217693 -80.945923 59 762ft 0kts
26-Feb-19 17:08 35.217693 -80.945923 59 762ft 0kts
26-Feb-19 17:09 35.217693 -80.945923 59 762ft 0kts
26-Feb-19 17:10 35.217693 -80.945923 59 762ft 0kts
26-Feb-19 17:11 35.217693 -80.945923 59 762ft 0kts
26-Feb-19 17:12 35.217693 -80.945923 59 762ft 0kts
26-Feb-19 17:13 35.217435 -80.946456 59 762ft 2kts
26-Feb-19 17:14 35.217271 -80.946794 59 762ft 0kts
26-Feb-19 17:15 35.217271 -80.946794 59 762ft 0kts
26-Feb-19 17:16 35.217271 -80.946793 59 762ft 0kts
26-Feb-19 17:17 35.217505 -80.947039 308 762ft 6kts
26-Feb-19 17:18 35.218874 -80.948084 271 762ft 8kts
26-Feb-19 17:19 35.220154 -80.950530 356 762ft 12kts
26-Feb-19 17:20 35.224873 -80.950926 356 762ft 18kts
26-Feb-19 17:21 35.227441 -80.951693 263 762ft 5kts
26-Feb-19 17:22 35.226868 -80.953146 168 762ft 4kts
26-Feb-19 17:23 35.207078 -80.951448 176 1182ft 166kts
26-Feb-19 17:24 35.175949 -80.981423 278 3421ft 235kts
26-Feb-19 17:25 35.226779 -81.043165 314 6684ft 273kts
26-Feb-19 17:26 35.284653 -81.105593 315 10317ft 285kts
26-Feb-19 17:27 35.350066 -81.175712 315 12470ft 337kts
26-Feb-19 17:28 35.421304 -81.252144 314 15616ft 343kts
26-Feb-19 17:29 35.482074 -81.342542 301 18204ft 349kts
26-Feb-19 17:30 35.538656 -81.441679 301 20522ft 360kts
26-Feb-19 17:31 35.588741 -81.549376 293 22602ft 367kts
26-Feb-19 17:32 35.636842 -81.662134 294 24465ft 377kts
26-Feb-19 17:33 35.686630 -81.777270 293 26198ft 385kts
26-Feb-19 17:34 35.737623 -81.895141 296 27831ft 396kts
26-Feb-19 17:35 35.820665 -81.990103 316 29402ft 421kts
26-Feb-19 17:36 35.913121 -82.077281 313 31300ft 415kts
26-Feb-19 17:37 36.004632 -82.164434 313 32912ft 413kts
26-Feb-19 17:38 36.095401 -82.251174 313 34270ft 411kts
26-Feb-19 17:39 36.185430 -82.337362 312 34359ft 408kts
26-Feb-19 17:40 36.275408 -82.423887 313 34353ft 409kts
26-Feb-19 17:41 36.365568 -82.510786 313 34393ft 411kts
26-Feb-19 17:42 36.455581 -82.597724 313 34391ft 408kts
26-Feb-19 17:43 36.545031 -82.684511 313 34367ft 406kts
26-Feb-19 17:44 36.633886 -82.770894 313 34311ft 407kts
26-Feb-19 17:45 36.722901 -82.857721 313 34335ft 407kts
26-Feb-19 17:46 36.812798 -82.944254 314 34396ft 407kts
26-Feb-19 17:47 36.883996 -83.045824 285 34394ft 379kts
26-Feb-19 17:48 36.907664 -83.173121 279 34318ft 377kts
26-Feb-19 17:49 36.931356 -83.300652 279 34358ft 377kts
26-Feb-19 17:50 36.954764 -83.429009 279 34378ft 378kts
26-Feb-19 17:51 36.977980 -83.557095 279 34390ft 378kts
26-Feb-19 17:52 37.001133 -83.685757 279 34386ft 379kts
26-Feb-19 17:54 37.024162 -83.814336 279 34380ft 379kts
26-Feb-19 17:55 37.047098 -83.943318 279 34375ft 379kts
26-Feb-19 17:56 37.069801 -84.071999 279 34364ft 379kts
26-Feb-19 17:57 37.100883 -84.198309 296 34291ft 390kts
26-Feb-19 17:58 37.174912 -84.301415 306 34337ft 399kts
26-Feb-19 17:59 37.249611 -84.403878 306 34340ft 398kts
26-Feb-19 18:00 37.323846 -84.504962 306 32120ft 390kts
26-Feb-19 18:01 37.397683 -84.603766 307 29655ft 384kts
26-Feb-19 18:02 37.469746 -84.700709 308 27363ft 373kts
26-Feb-19 18:03 37.538955 -84.795125 308 25195ft 361kts
26-Feb-19 18:04 37.606527 -84.887831 308 23102ft 364kts
26-Feb-19 18:05 37.675219 -84.982259 309 21018ft 359kts
26-Feb-19 18:06 37.741610 -85.073698 309 19074ft 348kts
26-Feb-19 18:07 37.806168 -85.162870 309 17251ft 339kts
26-Feb-19 18:08 37.868989 -85.250153 308 15496ft 329kts
26-Feb-19 18:09 37.927195 -85.336030 305 13590ft 307kts
26-Feb-19 18:10 37.979708 -85.418408 305 11882ft 293kts
26-Feb-19 18:11 38.028404 -85.494733 304 10476ft 261kts
26-Feb-19 18:12 38.074327 -85.567065 305 9037ft 263kts
26-Feb-19 18:13 38.094270 -85.589620 329 8504ft 271kts
26-Feb-19 18:14 38.151001 -85.608280 342 7479ft 273kts
26-Feb-19 18:14 38.211982 -85.628616 341 6295ft 270kts
26-Feb-19 18:15 38.284101 -85.649099 345 4907ft 260kts
26-Feb-19 18:17 38.365468 -85.674477 345 4059ft 250kts
26-Feb-19 18:17 38.394673 -85.683935 345 4095ft 219kts
26-Feb-19 18:18 38.429710 -85.730773 257 4187ft 207kts
26-Feb-19 18:19 38.414545 -85.797544 228 4165ft 182kts
26-Feb-19 18:21 38.362067 -85.791412 164 4074ft 182kts
26-Feb-19 18:21 38.321544 -85.777288 164 3241ft 179kts
26-Feb-19 18:22 38.275625 -85.761569 163 2330ft 147kts
26-Feb-19 18:23 38.240358 -85.749493 163 1623ft 126kts
26-Feb-19 18:24 38.206371 -85.737936 163 936ft 126kts
26-Feb-19 18:25 38.176226 -85.727500 164 515ft 45kts
26-Feb-19 18:26 38.173487 -85.728147 296 515ft 8kts
26-Feb-19 18:27 38.176325 -85.730917 293 515ft 17kts
26-Feb-19 18:28 38.178237 -85.737210 290 515ft 24kts
26-Feb-19 18:29 38.180484 -85.742057 333 515ft 9kts
26-Feb-19 18:30 38.181859 -85.742864 2 515ft 2kts
26-Feb-19 18:31 38.182160 -85.742441 69 515ft 0kts

Navigation Log

Ident Type
Flight plan parsing failed, navigation log unavailable